PRCLP SBCY-SBSI
Flight info
| Callsign | PRCLP |
|---|---|
| Flight time | 0h 31m |
| Altitude | 7000 |
| Route | EQUAL |
| Aircraft | BE36/L-BDFGLORY/S |
Departure
| Time | 2026-04-20 20:50 |
|---|---|
| Airport | Várzea Grande–Marechal Rondon International Airport (SBCY) |
Arrival
| Time | 2026-04-20 21:21 |
|---|---|
| Airport | Presidente João Batista Figueiredo Airport (SBSI) |
| Time | Latitude | Longitude | Altitude | Speed | Heading |
|---|---|---|---|---|---|
| 2026-04-20 20:35 | -15.65635 | -56.11709 | 621 ft | 0 kts | 243° |
| 2026-04-20 20:46 | -15.65631 | -56.11702 | 621 ft | 2 kts | 243° |
| 2026-04-20 20:46 | -15.65623 | -56.11686 | 621 ft | 3 kts | 243° |
| 2026-04-20 20:46 | -15.65617 | -56.11673 | 621 ft | 0 kts | 243° |
| 2026-04-20 20:47 | -15.65629 | -56.11665 | 621 ft | 7 kts | 117° |
| 2026-04-20 20:47 | -15.65665 | -56.11614 | 621 ft | 4 kts | 122° |
| 2026-04-20 20:47 | -15.65639 | -56.11550 | 621 ft | 14 kts | 63° |
| 2026-04-20 20:47 | -15.65648 | -56.11494 | 621 ft | 16 kts | 154° |
| 2026-04-20 20:48 | -15.65784 | -56.11419 | 621 ft | 28 kts | 152° |
| 2026-04-20 20:48 | -15.65902 | -56.11356 | 621 ft | 5 kts | 158° |
| 2026-04-20 20:48 | -15.65885 | -56.11355 | 621 ft | 0 kts | 333° |
| 2026-04-20 20:49 | -15.65653 | -56.11479 | 621 ft | 65 kts | 333° |
| 2026-04-20 20:49 | -15.65160 | -56.11743 | 698 ft | 83 kts | 333° |
| 2026-04-20 20:49 | -15.64624 | -56.12030 | 898 ft | 93 kts | 333° |
| 2026-04-20 20:50 | -15.63991 | -56.12368 | 1134 ft | 111 kts | 333° |
| 2026-04-20 20:50 | -15.63298 | -56.12729 | 1536 ft | 108 kts | 330° |
| 2026-04-20 20:50 | -15.62671 | -56.13116 | 1987 ft | 103 kts | 330° |
| 2026-04-20 20:50 | -15.62019 | -56.13480 | 2323 ft | 109 kts | 333° |
| 2026-04-20 20:51 | -15.61334 | -56.13831 | 2659 ft | 114 kts | 334° |
| 2026-04-20 20:51 | -15.60580 | -56.14206 | 2876 ft | 126 kts | 334° |
| 2026-04-20 20:51 | -15.59784 | -56.14675 | 3076 ft | 136 kts | 327° |
| 2026-04-20 20:51 | -15.58992 | -56.15224 | 3262 ft | 142 kts | 326° |
| 2026-04-20 20:52 | -15.58165 | -56.15818 | 3450 ft | 146 kts | 325° |
| 2026-04-20 20:52 | -15.57324 | -56.16432 | 3634 ft | 149 kts | 324° |
| 2026-04-20 20:52 | -15.56468 | -56.17061 | 3814 ft | 151 kts | 324° |
| 2026-04-20 20:52 | -15.55606 | -56.17695 | 3992 ft | 152 kts | 324° |
| 2026-04-20 20:53 | -15.54707 | -56.18244 | 4164 ft | 149 kts | 340° |
| 2026-04-20 20:53 | -15.53716 | -56.18504 | 4344 ft | 146 kts | 349° |
| 2026-04-20 20:53 | -15.52712 | -56.18658 | 4519 ft | 144 kts | 352° |
| 2026-04-20 20:53 | -15.51721 | -56.18776 | 4692 ft | 143 kts | 353° |
| 2026-04-20 20:54 | -15.50737 | -56.18879 | 4866 ft | 141 kts | 353° |
| 2026-04-20 20:54 | -15.49774 | -56.18975 | 5038 ft | 140 kts | 353° |
| 2026-04-20 20:54 | -15.48810 | -56.19068 | 5212 ft | 139 kts | 352° |
| 2026-04-20 20:54 | -15.47841 | -56.19160 | 5387 ft | 137 kts | 352° |
| 2026-04-20 20:55 | -15.46901 | -56.19248 | 5559 ft | 137 kts | 351° |
| 2026-04-20 20:55 | -15.45957 | -56.19337 | 5732 ft | 136 kts | 350° |
| 2026-04-20 20:55 | -15.45016 | -56.19426 | 5905 ft | 135 kts | 349° |
| 2026-04-20 20:55 | -15.44077 | -56.19515 | 6078 ft | 135 kts | 348° |
| 2026-04-20 20:56 | -15.43142 | -56.19603 | 6251 ft | 135 kts | 348° |
| 2026-04-20 20:56 | -15.42199 | -56.19651 | 6423 ft | 138 kts | 355° |
| 2026-04-20 20:56 | -15.41239 | -56.19537 | 6598 ft | 140 kts | 0° |
| 2026-04-20 20:56 | -15.40273 | -56.19372 | 6771 ft | 141 kts | 1° |
| 2026-04-20 20:57 | -15.39298 | -56.19191 | 6912 ft | 144 kts | 2° |
| 2026-04-20 20:57 | -15.38307 | -56.19002 | 6973 ft | 151 kts | 3° |
| 2026-04-20 20:57 | -15.37242 | -56.18797 | 6982 ft | 160 kts | 3° |
| 2026-04-20 20:57 | -15.36123 | -56.18577 | 6980 ft | 167 kts | 4° |
| 2026-04-20 20:58 | -15.34966 | -56.18347 | 6977 ft | 171 kts | 4° |
| 2026-04-20 20:58 | -15.33792 | -56.18113 | 6975 ft | 173 kts | 4° |
| 2026-04-20 20:58 | -15.32603 | -56.17874 | 6974 ft | 174 kts | 4° |
| 2026-04-20 20:58 | -15.31407 | -56.17635 | 6973 ft | 175 kts | 4° |
| 2026-04-20 20:59 | -15.30209 | -56.17395 | 6973 ft | 175 kts | 4° |
| 2026-04-20 20:59 | -15.29412 | -56.17235 | 6973 ft | 176 kts | 4° |
| 2026-04-20 20:59 | -15.28211 | -56.16995 | 6972 ft | 176 kts | 4° |
| 2026-04-20 20:59 | -15.27011 | -56.16756 | 6972 ft | 176 kts | 4° |
| 2026-04-20 21:00 | -15.25811 | -56.16516 | 6972 ft | 176 kts | 4° |
| 2026-04-20 21:00 | -15.24605 | -56.16276 | 6972 ft | 176 kts | 4° |
| 2026-04-20 21:00 | -15.23012 | -56.15958 | 6972 ft | 176 kts | 4° |
| 2026-04-20 21:00 | -15.22197 | -56.15796 | 6972 ft | 176 kts | 4° |
| 2026-04-20 21:01 | -15.20994 | -56.15557 | 6972 ft | 176 kts | 4° |
| 2026-04-20 21:01 | -15.19807 | -56.15320 | 6972 ft | 176 kts | 4° |
| 2026-04-20 21:01 | -15.18602 | -56.15080 | 6972 ft | 176 kts | 4° |
| 2026-04-20 21:01 | -15.17397 | -56.14840 | 6972 ft | 176 kts | 4° |
| 2026-04-20 21:02 | -15.16196 | -56.14601 | 6972 ft | 176 kts | 4° |
| 2026-04-20 21:02 | -15.14993 | -56.14362 | 6972 ft | 176 kts | 4° |
| 2026-04-20 21:02 | -15.13789 | -56.14122 | 6972 ft | 176 kts | 4° |
| 2026-04-20 21:02 | -15.12588 | -56.13883 | 6972 ft | 176 kts | 4° |
| 2026-04-20 21:03 | -15.11381 | -56.13643 | 6972 ft | 176 kts | 4° |
| 2026-04-20 21:03 | -15.10179 | -56.13404 | 6972 ft | 176 kts | 4° |
| 2026-04-20 21:03 | -15.08973 | -56.13164 | 6972 ft | 176 kts | 4° |
| 2026-04-20 21:03 | -15.07771 | -56.12925 | 6972 ft | 176 kts | 4° |
| 2026-04-20 21:04 | -15.06565 | -56.12685 | 6972 ft | 176 kts | 4° |
| 2026-04-20 21:04 | -15.05379 | -56.12449 | 6972 ft | 176 kts | 4° |
| 2026-04-20 21:04 | -15.04161 | -56.12207 | 6972 ft | 176 kts | 4° |
| 2026-04-20 21:04 | -15.02959 | -56.11968 | 6972 ft | 176 kts | 4° |
| 2026-04-20 21:05 | -15.01763 | -56.11731 | 6972 ft | 176 kts | 4° |
| 2026-04-20 21:05 | -15.00560 | -56.11492 | 6972 ft | 176 kts | 4° |
| 2026-04-20 21:05 | -14.99350 | -56.11259 | 6972 ft | 176 kts | 3° |
| 2026-04-20 21:05 | -14.98145 | -56.11048 | 6972 ft | 175 kts | 3° |
| 2026-04-20 21:06 | -14.96941 | -56.10845 | 6972 ft | 175 kts | 2° |
| 2026-04-20 21:06 | -14.95746 | -56.10646 | 6972 ft | 175 kts | 2° |
| 2026-04-20 21:06 | -14.94538 | -56.10448 | 6972 ft | 175 kts | 2° |
| 2026-04-20 21:06 | -14.93326 | -56.10249 | 6972 ft | 175 kts | 2° |
| 2026-04-20 21:07 | -14.92119 | -56.10052 | 6972 ft | 175 kts | 2° |
| 2026-04-20 21:07 | -14.90929 | -56.09858 | 6972 ft | 175 kts | 2° |
| 2026-04-20 21:07 | -14.89724 | -56.09662 | 6972 ft | 175 kts | 2° |
| 2026-04-20 21:07 | -14.88520 | -56.09466 | 6972 ft | 175 kts | 2° |
| 2026-04-20 21:08 | -14.87312 | -56.09270 | 6972 ft | 175 kts | 2° |
| 2026-04-20 21:08 | -14.86104 | -56.09074 | 6972 ft | 175 kts | 2° |
| 2026-04-20 21:08 | -14.84901 | -56.08878 | 6972 ft | 175 kts | 2° |
| 2026-04-20 21:08 | -14.83694 | -56.08682 | 6972 ft | 175 kts | 2° |
| 2026-04-20 21:09 | -14.82492 | -56.08487 | 6972 ft | 175 kts | 2° |
| 2026-04-20 21:09 | -14.81281 | -56.08290 | 6972 ft | 175 kts | 2° |
| 2026-04-20 21:09 | -14.80075 | -56.08095 | 6972 ft | 175 kts | 2° |
| 2026-04-20 21:09 | -14.78868 | -56.07899 | 6972 ft | 175 kts | 2° |
| 2026-04-20 21:10 | -14.77664 | -56.07703 | 6972 ft | 175 kts | 2° |
| 2026-04-20 21:10 | -14.76472 | -56.07510 | 6972 ft | 175 kts | 2° |
| 2026-04-20 21:10 | -14.75269 | -56.07315 | 6972 ft | 175 kts | 2° |
| 2026-04-20 21:10 | -14.74062 | -56.07119 | 6972 ft | 175 kts | 2° |
| 2026-04-20 21:11 | -14.72853 | -56.06923 | 6972 ft | 175 kts | 2° |
| 2026-04-20 21:11 | -14.71649 | -56.06727 | 6972 ft | 175 kts | 2° |
| 2026-04-20 21:11 | -14.70445 | -56.06532 | 6972 ft | 175 kts | 2° |
| 2026-04-20 21:11 | -14.69237 | -56.06336 | 6972 ft | 175 kts | 2° |
| 2026-04-20 21:12 | -14.68030 | -56.06141 | 6972 ft | 175 kts | 2° |
| 2026-04-20 21:12 | -14.66826 | -56.05945 | 6972 ft | 175 kts | 2° |
| 2026-04-20 21:12 | -14.65618 | -56.05750 | 6972 ft | 175 kts | 2° |
| 2026-04-20 21:12 | -14.64409 | -56.05554 | 6972 ft | 175 kts | 2° |
| 2026-04-20 21:13 | -14.59868 | -56.04818 | 6972 ft | 175 kts | 2° |
| 2026-04-20 21:13 | -14.55031 | -56.04035 | 6972 ft | 175 kts | 2° |
| 2026-04-20 21:13 | -14.50209 | -56.03254 | 6972 ft | 175 kts | 2° |
| 2026-04-20 21:13 | -14.45385 | -56.02473 | 6972 ft | 175 kts | 2° |
| 2026-04-20 21:14 | -14.40557 | -56.01692 | 6972 ft | 175 kts | 2° |
| 2026-04-20 21:14 | -14.35738 | -56.00913 | 6972 ft | 175 kts | 2° |
| 2026-04-20 21:14 | -14.30908 | -56.00133 | 6972 ft | 175 kts | 2° |
| 2026-04-20 21:14 | -14.26092 | -55.99355 | 6972 ft | 175 kts | 2° |
| 2026-04-20 21:15 | -14.11694 | -55.97030 | 6972 ft | 175 kts | 2° |
| 2026-04-20 21:15 | -13.92391 | -55.93919 | 6972 ft | 175 kts | 2° |
| 2026-04-20 21:15 | -13.72708 | -55.90756 | 6972 ft | 175 kts | 2° |
| 2026-04-20 21:15 | -13.53413 | -55.87652 | 6972 ft | 175 kts | 2° |
| 2026-04-20 21:16 | -13.33826 | -55.84524 | 6972 ft | 178 kts | 2° |
| 2026-04-20 21:16 | -13.14139 | -55.81377 | 6972 ft | 178 kts | 2° |
| 2026-04-20 21:16 | -12.94366 | -55.78224 | 6971 ft | 178 kts | 2° |
| 2026-04-20 21:16 | -12.74797 | -55.75106 | 6935 ft | 183 kts | 2° |
| 2026-04-20 21:17 | -12.55162 | -55.71968 | 6972 ft | 178 kts | 2° |
| 2026-04-20 21:17 | -12.35526 | -55.68843 | 6972 ft | 178 kts | 2° |
| 2026-04-20 21:17 | -12.15882 | -55.65725 | 6972 ft | 178 kts | 2° |
| 2026-04-20 21:17 | -11.95454 | -55.61366 | 5153 ft | 189 kts | 11° |
| 2026-04-20 21:18 | -11.91112 | -55.60111 | 4841 ft | 180 kts | 26° |
| 2026-04-20 21:18 | -11.89972 | -55.59593 | 4765 ft | 182 kts | 24° |
| 2026-04-20 21:18 | -11.89034 | -55.58725 | 4611 ft | 186 kts | 54° |
| 2026-04-20 21:18 | -11.96532 | -55.61070 | 4553 ft | 187 kts | 56° |
| 2026-04-20 21:19 | -11.95632 | -55.60195 | 4283 ft | 178 kts | 23° |
| 2026-04-20 21:19 | -11.94470 | -55.59785 | 3837 ft | 163 kts | 24° |
| 2026-04-20 21:19 | -11.93663 | -55.59384 | 3742 ft | 114 kts | 25° |
| 2026-04-20 21:20 | -11.92180 | -55.58722 | 3197 ft | 130 kts | 16° |
| 2026-04-20 21:20 | -11.91356 | -55.58455 | 2412 ft | 139 kts | 17° |
| 2026-04-20 21:20 | -11.90424 | -55.58245 | 2059 ft | 134 kts | 15° |
| 2026-04-20 21:20 | -11.89530 | -55.57995 | 1678 ft | 121 kts | 14° |
| 2026-04-20 21:21 | -11.88788 | -55.57790 | 1484 ft | 105 kts | 12° |
| 2026-04-20 21:21 | -11.88113 | -55.57599 | 1330 ft | 99 kts | 18° |
| 2026-04-20 21:21 | -11.87495 | -55.57426 | 1285 ft | 79 kts | 14° |
| 2026-04-20 21:21 | -11.87076 | -55.57315 | 1284 ft | 40 kts | 18° |
| 2026-04-20 21:22 | -15.65635 | -56.11709 | 617 ft | 0 kts | 243° |